Time;durP1;ratioP1;P1;durP2;ratioP2;P2;SDS_P1;SDS_P2;PMS_P1;PMS_P2;Temp;Humidity;BMP_temperature;BMP_pressure;BME280_temperature;BME280_humidity;BME280_pressure;Samples;Min_cycle;Max_cycle;Signal;HPM_P1;HPM_P2
2021/10/24 00:00:53;;;;;;;12.73;7.43;;;3.30;97.30;;;;;;4995955;28;20550;-83
2021/10/24 00:03:19;;;;;;;12.20;6.77;;;3.30;97.30;;;;;;4995891;28;20173;-84
2021/10/24 00:05:44;;;;;;;13.37;7.00;;;3.30;97.30;;;;;;5015872;28;20184;-83
2021/10/24 00:08:10;;;;;;;11.83;6.37;;;3.20;97.30;;;;;;4997395;28;20196;-82
2021/10/24 00:10:35;;;;;;;12.10;6.20;;;3.20;97.30;;;;;;5015030;28;20226;-82
2021/10/24 00:13:01;;;;;;;12.20;7.40;;;3.20;97.30;;;;;;5014831;28;20236;-82
2021/10/24 00:15:26;;;;;;;13.13;6.73;;;3.10;97.30;;;;;;4997445;28;20300;-82
2021/10/24 00:17:52;;;;;;;13.60;7.03;;;3.10;97.30;;;;;;4996630;28;20196;-82
2021/10/24 00:20:17;;;;;;;14.17;6.63;;;3.10;97.30;;;;;;4995656;28;20193;-82
2021/10/24 00:22:43;;;;;;;10.00;6.23;;;3.00;97.30;;;;;;4995955;28;20204;-82
2021/10/24 00:25:09;;;;;;;17.73;7.63;;;3.00;97.30;;;;;;5013212;28;20559;-82
2021/10/24 00:27:35;;;;;;;9.50;5.53;;;3.00;97.30;;;;;;4996714;28;20272;-82
2021/10/24 00:30:00;;;;;;;15.10;6.90;;;3.00;97.30;;;;;;4996695;28;20464;-82
2021/10/24 00:32:26;;;;;;;10.00;5.83;;;3.00;97.30;;;;;;4996400;28;20240;-82
2021/10/24 00:34:54;;;;;;;13.13;5.57;;;3.00;97.30;;;;;;5013218;28;20240;-82
2021/10/24 00:37:20;;;;;;;10.80;6.23;;;3.00;97.30;;;;;;4995551;28;20177;-82
2021/10/24 00:39:46;;;;;;;11.40;5.80;;;2.90;97.30;;;;;;4995926;28;20462;-82
2021/10/24 00:42:11;;;;;;;12.47;5.30;;;2.90;97.30;;;;;;5006745;28;20203;-82
2021/10/24 00:44:37;;;;;;;13.90;6.10;;;2.90;97.30;;;;;;5031204;28;20183;-82
2021/10/24 00:47:05;;;;;;;15.73;6.60;;;2.90;97.30;;;;;;5014336;28;20267;-82
2021/10/24 00:49:31;;;;;;;13.77;5.80;;;2.80;97.30;;;;;;5015506;28;20712;-82
2021/10/24 00:51:57;;;;;;;24.10;7.20;;;2.80;97.30;;;;;;5016620;28;20450;-82
2021/10/24 00:54:25;;;;;;;9.60;6.10;;;2.80;97.30;;;;;;5020840;28;20415;-82
2021/10/24 00:56:55;;;;;;;13.43;6.30;;;2.80;97.30;;;;;;5020056;28;20429;-81
2021/10/24 00:59:23;;;;;;;10.40;6.50;;;2.80;97.30;;;;;;5020141;28;20419;-79
2021/10/24 01:01:49;;;;;;;10.47;5.60;;;2.70;97.30;;;;;;5019721;28;20447;-81
2021/10/24 01:04:14;;;;;;;9.60;5.20;;;2.70;97.30;;;;;;5019366;28;20423;-82
2021/10/24 01:06:41;;;;;;;12.43;6.47;;;2.70;97.30;;;;;;5017120;28;20460;-82
2021/10/24 01:09:12;;;;;;;22.33;6.40;;;2.70;97.30;;;;;;5017106;28;20216;-82
2021/10/24 01:11:40;;;;;;;13.07;6.40;;;2.60;97.30;;;;;;5018123;28;20457;-81
2021/10/24 01:14:06;;;;;;;16.10;6.23;;;2.60;97.30;;;;;;5017427;28;20721;-82
2021/10/24 01:16:36;;;;;;;9.40;5.73;;;2.60;97.30;;;;;;5018714;28;20921;-82
2021/10/24 01:19:04;;;;;;;12.03;5.97;;;2.50;97.30;;;;;;5018159;28;20207;-82
2021/10/24 01:21:30;;;;;;;9.47;6.00;;;2.60;97.30;;;;;;5021883;28;20435;-82
2021/10/24 01:23:55;;;;;;;13.57;5.53;;;2.50;97.30;;;;;;5021164;28;21160;-81
2021/10/24 01:26:21;;;;;;;16.40;5.97;;;2.50;97.30;;;;;;5039615;28;20415;-82
2021/10/24 01:28:46;;;;;;;12.67;7.17;;;2.50;97.30;;;;;;5020858;28;20241;-81
2021/10/24 01:31:12;;;;;;;11.23;5.83;;;2.50;97.30;;;;;;5019646;28;20211;-81
2021/10/24 01:33:37;;;;;;;11.87;5.87;;;2.40;97.30;;;;;;5020432;28;20722;-82
2021/10/24 01:36:06;;;;;;;9.43;5.60;;;2.40;97.30;;;;;;5017080;28;20578;-81
2021/10/24 01:38:33;;;;;;;13.43;6.50;;;2.40;97.30;;;;;;5018349;28;20187;-82
2021/10/24 01:40:59;;;;;;;12.90;5.63;;;2.40;97.30;;;;;;5016650;28;21821;-82
2021/10/24 01:43:26;;;;;;;17.10;5.60;;;2.40;97.30;;;;;;5017795;28;20436;-81
2021/10/24 01:45:52;;;;;;;12.83;6.57;;;2.40;97.30;;;;;;4999381;28;20430;-82
2021/10/24 01:48:19;;;;;;;10.13;4.93;;;2.40;97.30;;;;;;5017199;28;20463;-82
2021/10/24 01:50:46;;;;;;;14.23;6.00;;;2.30;97.30;;;;;;4999437;28;20930;-82
2021/10/24 01:53:16;;;;;;;11.77;5.73;;;2.30;97.30;;;;;;4997937;28;20942;-82
2021/10/24 01:55:41;;;;;;;11.57;5.53;;;2.30;97.30;;;;;;4998959;28;20517;-82
2021/10/24 01:58:07;;;;;;;10.53;5.90;;;2.30;97.30;;;;;;4998762;28;20408;-82
2021/10/24 02:00:32;;;;;;;10.70;5.70;;;2.30;97.30;;;;;;4999204;28;20517;-82
2021/10/24 02:02:59;;;;;;;12.50;6.80;;;2.30;97.30;;;;;;4998980;28;20197;-83
2021/10/24 02:05:25;;;;;;;9.43;5.37;;;2.30;97.30;;;;;;5002191;28;20647;-82
2021/10/24 02:07:50;;;;;;;16.00;6.70;;;2.30;97.30;;;;;;4999412;28;20503;-82
2021/10/24 02:10:17;;;;;;;10.90;6.07;;;2.30;97.30;;;;;;4999505;28;20675;-83
2021/10/24 02:12:43;;;;;;;11.00;5.77;;;2.30;97.30;;;;;;5016820;28;20722;-82
2021/10/24 02:15:10;;;;;;;10.97;5.93;;;2.30;97.30;;;;;;4998516;28;20420;-82
2021/10/24 02:17:36;;;;;;;13.63;5.77;;;2.30;97.30;;;;;;5016349;28;20517;-82
2021/10/24 02:20:04;;;;;;;8.10;4.90;;;2.30;97.30;;;;;;4998224;28;20419;-82
2021/10/24 02:22:29;;;;;;;12.57;5.47;;;2.20;97.30;;;;;;5015727;28;20197;-82
2021/10/24 02:24:55;;;;;;;10.90;5.30;;;2.20;97.30;;;;;;4997747;28;20416;-82
2021/10/24 02:27:20;;;;;;;9.97;4.93;;;2.20;97.30;;;;;;4998915;28;20601;-81
2021/10/24 02:29:46;;;;;;;12.13;5.67;;;2.20;97.30;;;;;;4999736;28;20173;-82
2021/10/24 02:32:12;;;;;;;14.47;5.87;;;2.20;97.30;;;;;;4995529;28;20462;-82
2021/10/24 02:34:38;;;;;;;13.10;6.40;;;2.20;97.30;;;;;;4995329;28;20504;-82
2021/10/24 02:37:04;;;;;;;12.03;5.53;;;2.20;97.30;;;;;;4995349;28;20224;-82
2021/10/24 02:39:29;;;;;;;9.03;4.87;;;2.20;97.30;;;;;;4994576;28;20822;-82
2021/10/24 02:41:55;;;;;;;14.10;5.70;;;2.10;97.30;;;;;;5004539;28;20193;-82
2021/10/24 02:44:22;;;;;;;9.00;4.87;;;2.10;97.30;;;;;;5013980;28;20173;-82
2021/10/24 02:46:48;;;;;;;12.63;5.67;;;2.10;97.30;;;;;;5015353;28;20174;-82
2021/10/24 02:49:13;;;;;;;14.20;5.30;;;2.10;97.30;;;;;;5014717;28;20484;-82
2021/10/24 02:51:40;;;;;;;11.90;5.83;;;2.10;97.30;;;;;;5017787;28;20200;-81
2021/10/24 02:54:05;;;;;;;10.57;5.90;;;2.20;97.30;;;;;;5017142;28;20173;-82
2021/10/24 02:56:31;;;;;;;13.23;5.57;;;2.20;97.30;;;;;;5017406;28;20463;-81
2021/10/24 02:58:56;;;;;;;9.43;5.03;;;2.20;97.30;;;;;;5016955;28;20200;-81
2021/10/24 03:01:22;;;;;;;9.30;4.80;;;2.20;97.30;;;;;;5016013;28;20214;-81
2021/10/24 03:03:47;;;;;;;10.93;5.23;;;2.30;97.30;;;;;;5016006;28;20803;-81
2021/10/24 03:06:13;;;;;;;12.70;5.50;;;2.30;97.30;;;;;;5014975;28;20184;-82
2021/10/24 03:08:38;;;;;;;16.73;6.00;;;2.20;97.30;;;;;;5015568;28;20677;-81
2021/10/24 03:11:04;;;;;;;11.20;5.57;;;2.20;97.30;;;;;;5015513;28;20212;-81
2021/10/24 03:13:29;;;;;;;9.63;5.33;;;2.20;97.30;;;;;;5015886;28;20180;-82
2021/10/24 03:15:55;;;;;;;18.73;6.20;;;2.20;97.30;;;;;;5015774;28;20594;-81
2021/10/24 03:18:20;;;;;;;13.13;5.17;;;2.20;97.30;;;;;;5015814;28;20181;-81
2021/10/24 03:20:46;;;;;;;13.97;5.17;;;2.20;97.30;;;;;;5014204;28;20243;-82
2021/10/24 03:23:12;;;;;;;8.53;5.83;;;2.20;97.30;;;;;;5014241;28;20201;-82
2021/10/24 03:25:37;;;;;;;14.47;5.50;;;2.20;97.30;;;;;;5014315;28;20424;-82
2021/10/24 03:28:03;;;;;;;12.23;5.20;;;2.10;97.30;;;;;;5014794;28;20267;-82
2021/10/24 03:30:29;;;;;;;12.87;4.97;;;2.10;97.30;;;;;;5014257;28;20674;-80
2021/10/24 03:32:55;;;;;;;8.40;4.83;;;2.00;97.30;;;;;;5012706;28;20476;-82
2021/10/24 03:35:20;;;;;;;10.20;5.13;;;2.00;97.30;;;;;;5013438;28;20213;-82
2021/10/24 03:37:46;;;;;;;17.10;5.37;;;2.00;97.30;;;;;;5013363;28;20173;-81
2021/10/24 03:40:11;;;;;;;15.23;5.33;;;1.90;97.30;;;;;;5014868;28;20205;-82
2021/10/24 03:42:37;;;;;;;27.33;8.53;;;1.90;97.30;;;;;;4997511;28;20645;-82
2021/10/24 03:45:04;;;;;;;15.67;6.40;;;1.90;97.30;;;;;;4994565;28;20229;-82
2021/10/24 03:47:29;;;;;;;11.93;5.60;;;1.90;97.30;;;;;;4994162;28;20180;-82
2021/10/24 03:49:55;;;;;;;11.97;5.60;;;1.90;97.30;;;;;;4994438;28;20500;-82
2021/10/24 03:52:20;;;;;;;10.10;5.40;;;1.90;97.30;;;;;;4992741;28;20221;-82
2021/10/24 03:54:46;;;;;;;9.93;5.43;;;1.90;97.30;;;;;;4993325;28;20178;-82
2021/10/24 03:57:11;;;;;;;8.30;5.27;;;1.90;97.30;;;;;;4994537;28;20297;-82
2021/10/24 03:59:37;;;;;;;12.13;6.20;;;1.90;97.30;;;;;;4993509;28;20169;-82
2021/10/24 04:02:02;;;;;;;11.43;5.60;;;1.80;97.30;;;;;;4993858;28;20208;-82
2021/10/24 04:04:28;;;;;;;15.00;5.57;;;1.80;97.30;;;;;;4995957;28;20177;-82
2021/10/24 04:06:53;;;;;;;9.90;5.03;;;1.80;97.30;;;;;;4994714;28;20618;-82
2021/10/24 04:09:19;;;;;;;9.00;4.93;;;1.80;97.30;;;;;;4993806;28;20174;-82
2021/10/24 04:11:44;;;;;;;10.50;5.17;;;1.80;97.30;;;;;;4994108;28;20197;-82
2021/10/24 04:14:10;;;;;;;11.40;5.13;;;1.80;97.30;;;;;;4993238;28;20185;-82
2021/10/24 04:16:35;;;;;;;9.23;5.43;;;1.80;97.30;;;;;;4992409;28;20263;-82
2021/10/24 04:19:02;;;;;;;9.83;4.63;;;1.80;97.30;;;;;;4993016;28;20562;-82
2021/10/24 04:21:27;;;;;;;9.47;4.90;;;1.80;97.30;;;;;;4992421;28;20252;-82
2021/10/24 04:23:53;;;;;;;12.67;5.60;;;1.80;97.30;;;;;;4994501;28;20417;-82
2021/10/24 04:26:18;;;;;;;12.97;5.20;;;1.90;97.30;;;;;;4994302;28;20289;-82
2021/10/24 04:28:44;;;;;;;7.73;5.10;;;1.90;97.30;;;;;;4993527;28;20187;-82
2021/10/24 04:31:10;;;;;;;8.20;6.00;;;1.90;97.30;;;;;;4994077;28;20216;-82
2021/10/24 04:33:35;;;;;;;11.57;5.30;;;1.90;97.30;;;;;;5013526;28;20185;-82
2021/10/24 04:36:01;;;;;;;7.73;4.80;;;1.90;97.30;;;;;;5014478;28;20459;-82
2021/10/24 04:38:29;;;;;;;15.17;7.23;;;1.90;97.30;;;;;;4998301;28;20174;-82
2021/10/24 04:40:54;;;;;;;8.77;4.63;;;1.80;97.30;;;;;;4997557;28;20176;-82
2021/10/24 04:43:20;;;;;;;11.53;4.83;;;1.80;97.30;;;;;;5015331;28;20403;-82
2021/10/24 04:45:46;;;;;;;11.03;5.43;;;1.80;97.30;;;;;;5015453;28;20177;-82
2021/10/24 04:48:11;;;;;;;9.37;4.80;;;1.80;97.30;;;;;;5015809;28;20185;-82
2021/10/24 04:50:37;;;;;;;19.83;7.00;;;1.80;97.30;;;;;;5016931;28;20208;-81
2021/10/24 04:53:05;;;;;;;7.50;4.43;;;1.70;97.30;;;;;;5016582;28;20200;-83
2021/10/24 04:55:30;;;;;;;14.90;6.00;;;1.70;97.30;;;;;;5016085;28;20200;-81
2021/10/24 04:57:56;;;;;;;7.17;3.97;;;1.70;97.30;;;;;;5016360;28;20851;-82
2021/10/24 05:00:21;;;;;;;14.87;5.33;;;1.70;97.30;;;;;;5016561;28;20172;-82
2021/10/24 05:02:47;;;;;;;9.60;5.30;;;1.60;97.30;;;;;;5015158;28;20667;-81
2021/10/24 05:05:12;;;;;;;8.03;4.90;;;1.60;97.30;;;;;;5014510;28;20184;-82
2021/10/24 05:07:38;;;;;;;14.50;5.30;;;1.50;97.30;;;;;;5014870;28;20177;-82
2021/10/24 05:10:04;;;;;;;8.07;4.60;;;1.50;97.30;;;;;;5015459;28;20172;-82
2021/10/24 05:12:31;;;;;;;12.57;4.90;;;1.50;97.30;;;;;;5015441;28;20881;-82
2021/10/24 05:14:56;;;;;;;10.50;4.80;;;1.50;97.30;;;;;;5016446;28;20423;-82
2021/10/24 05:17:22;;;;;;;8.90;5.00;;;1.40;97.30;;;;;;5015487;28;21119;-80
2021/10/24 05:19:47;;;;;;;9.50;4.80;;;1.40;97.30;;;;;;5015855;28;20173;-82
2021/10/24 05:22:12;;;;;;;12.73;5.47;;;1.40;97.30;;;;;;5015932;28;20251;-82
2021/10/24 05:24:38;;;;;;;11.10;4.90;;;1.40;97.30;;;;;;5034024;28;20212;-81
2021/10/24 05:27:04;;;;;;;13.90;5.80;;;1.40;97.30;;;;;;5015177;28;20286;-80
2021/10/24 05:29:29;;;;;;;13.60;5.30;;;1.40;97.30;;;;;;5014449;28;20183;-82
2021/10/24 05:31:56;;;;;;;10.40;5.67;;;1.30;97.30;;;;;;5015002;28;20238;-82
2021/10/24 05:34:21;;;;;;;13.97;5.07;;;1.30;97.30;;;;;;5002741;28;20181;-82
2021/10/24 05:36:47;;;;;;;6.90;5.20;;;1.30;97.30;;;;;;5006209;28;20455;-82
2021/10/24 05:39:13;;;;;;;9.17;4.80;;;1.30;97.30;;;;;;5015920;28;20964;-82
2021/10/24 05:41:38;;;;;;;9.80;5.10;;;1.30;97.30;;;;;;5008942;28;20273;-81
2021/10/24 05:44:06;;;;;;;8.90;4.40;;;1.20;97.30;;;;;;5027101;28;20184;-79
2021/10/24 05:46:32;;;;;;;10.03;5.40;;;1.20;97.30;;;;;;5012174;28;20180;-79
2021/10/24 05:48:59;;;;;;;9.80;4.53;;;1.20;97.30;;;;;;5010815;28;20997;-81
2021/10/24 05:51:25;;;;;;;10.00;4.87;;;1.10;97.30;;;;;;5007274;28;20432;-82
2021/10/24 05:53:51;;;;;;;9.13;5.43;;;1.10;97.30;;;;;;5008942;28;20423;-82
2021/10/24 05:56:17;;;;;;;14.87;5.63;;;1.10;97.30;;;;;;5007275;28;20460;-82
2021/10/24 05:58:43;;;;;;;9.13;5.13;;;1.10;97.30;;;;;;5007363;28;20414;-83
2021/10/24 06:01:09;;;;;;;7.90;4.80;;;1.20;97.30;;;;;;5007328;28;20676;-82
2021/10/24 06:03:34;;;;;;;10.63;4.60;;;1.20;97.30;;;;;;5024099;28;20205;-81
2021/10/24 06:06:00;;;;;;;12.27;4.30;;;1.30;97.30;;;;;;5008767;28;20428;-82
2021/10/24 06:08:27;;;;;;;15.80;6.10;;;1.40;97.30;;;;;;5006939;28;20179;-82
2021/10/24 06:10:54;;;;;;;7.13;4.40;;;1.40;97.30;;;;;;5007037;28;20279;-80
2021/10/24 06:13:20;;;;;;;10.00;5.27;;;1.50;97.30;;;;;;5006631;28;20425;-82
2021/10/24 06:15:47;;;;;;;16.60;6.53;;;1.50;97.30;;;;;;5006891;28;20542;-82
2021/10/24 06:18:13;;;;;;;13.23;7.10;;;1.60;97.30;;;;;;5010038;28;20412;-83
2021/10/24 06:20:39;;;;;;;15.43;5.60;;;1.70;97.30;;;;;;5006504;28;20414;-82
2021/10/24 06:23:05;;;;;;;15.33;5.77;;;1.70;97.30;;;;;;5004930;28;20287;-81
2021/10/24 06:25:30;;;;;;;13.53;6.37;;;1.70;97.30;;;;;;5010084;28;20525;-82
2021/10/24 06:27:56;;;;;;;10.80;5.27;;;1.80;97.30;;;;;;5008617;28;20415;-82
2021/10/24 06:30:22;;;;;;;11.03;5.43;;;1.80;97.30;;;;;;5010109;28;20180;-84
2021/10/24 06:32:49;;;;;;;10.30;5.60;;;1.80;97.30;;;;;;5015428;28;20601;-81
2021/10/24 06:35:14;;;;;;;14.63;7.20;;;1.80;97.30;;;;;;5003940;28;20421;-84
2021/10/24 06:37:42;;;;;;;7.70;5.30;;;1.90;97.30;;;;;;5013782;28;20415;-82
2021/10/24 06:40:09;;;;;;;16.00;5.70;;;2.00;97.30;;;;;;5034070;28;20181;-82
2021/10/24 06:42:36;;;;;;;11.80;5.50;;;2.00;97.30;;;;;;5006040;28;20463;-82
2021/10/24 06:45:03;;;;;;;12.07;5.50;;;2.10;97.30;;;;;;5018136;28;20846;-82
2021/10/24 06:47:29;;;;;;;10.20;5.13;;;2.10;97.30;;;;;;5000245;28;20504;-81
2021/10/24 06:49:54;;;;;;;9.43;4.83;;;2.20;97.30;;;;;;5008507;28;20454;-83
2021/10/24 06:52:20;;;;;;;8.23;5.30;;;2.20;97.30;;;;;;5035811;28;20195;-83
2021/10/24 06:54:45;;;;;;;20.97;6.27;;;2.30;97.30;;;;;;5019197;28;20177;-82
2021/10/24 06:57:11;;;;;;;17.33;6.20;;;2.40;97.30;;;;;;5018401;28;20200;-82
2021/10/24 06:59:39;;;;;;;13.80;6.70;;;2.50;97.30;;;;;;5019712;28;20223;-83
2021/10/24 07:02:06;;;;;;;11.13;5.23;;;2.60;97.30;;;;;;5019129;28;20196;-82
2021/10/24 07:04:31;;;;;;;9.17;4.93;;;2.70;97.30;;;;;;5019366;28;20933;-83
2021/10/24 07:06:56;;;;;;;9.97;6.00;;;2.80;97.30;;;;;;5019609;28;20422;-80
2021/10/24 07:09:22;;;;;;;11.70;6.03;;;2.90;97.30;;;;;;5019430;28;20179;-82
2021/10/24 07:11:47;;;;;;;10.23;4.80;;;3.00;97.30;;;;;;5018862;28;20239;-83
2021/10/24 07:14:13;;;;;;;11.20;5.83;;;3.10;97.30;;;;;;5036073;28;20183;-81
2021/10/24 07:16:38;;;;;;;12.03;5.97;;;3.20;97.30;;;;;;5017638;28;20215;-82
2021/10/24 07:19:04;;;;;;;11.57;5.70;;;3.40;97.30;;;;;;5016077;28;20619;-83
2021/10/24 07:21:29;;;;;;;20.80;6.30;;;3.50;97.30;;;;;;5035385;28;20196;-83
2021/10/24 07:23:55;;;;;;;9.67;4.97;;;3.60;97.30;;;;;;5018805;28;20200;-83
2021/10/24 07:26:20;;;;;;;12.50;5.43;;;3.70;97.30;;;;;;5019605;28;20176;-82
2021/10/24 07:28:46;;;;;;;9.97;5.87;;;3.90;97.30;;;;;;5018813;28;20180;-82
2021/10/24 07:31:11;;;;;;;13.37;6.23;;;4.00;97.30;;;;;;5018942;28;20173;-83
2021/10/24 07:33:37;;;;;;;8.30;5.40;;;4.10;97.30;;;;;;5018789;28;20187;-83
2021/10/24 07:36:02;;;;;;;17.10;5.50;;;4.20;97.30;;;;;;5017885;28;20270;-83
2021/10/24 07:38:28;;;;;;;8.53;5.00;;;4.30;97.30;;;;;;5035151;28;20199;-83
2021/10/24 07:40:54;;;;;;;9.73;5.47;;;4.50;97.30;;;;;;5017757;28;20180;-83
2021/10/24 07:43:21;;;;;;;7.60;4.63;;;4.60;97.30;;;;;;5017612;28;20168;-83
2021/10/24 07:45:47;;;;;;;12.30;5.53;;;4.70;97.30;;;;;;5018713;28;20176;-83
2021/10/24 07:48:13;;;;;;;9.47;5.40;;;4.80;97.30;;;;;;5018854;28;20422;-83
2021/10/24 07:50:39;;;;;;;8.77;4.50;;;5.00;97.30;;;;;;5018487;28;20427;-83
2021/10/24 07:53:04;;;;;;;15.90;5.13;;;5.10;97.30;;;;;;5018259;28;20193;-83
2021/10/24 07:55:31;;;;;;;6.03;3.53;;;5.20;97.30;;;;;;5017842;28;20205;-84
2021/10/24 07:57:57;;;;;;;9.60;4.90;;;5.40;97.30;;;;;;5017378;28;20670;-83
2021/10/24 08:00:23;;;;;;;14.63;4.90;;;5.50;97.30;;;;;;5016706;28;20407;-83
2021/10/24 08:02:49;;;;;;;10.50;4.07;;;5.60;97.30;;;;;;5033990;28;20208;-83
2021/10/24 08:05:15;;;;;;;7.30;3.43;;;5.80;97.30;;;;;;5017193;28;20411;-84
2021/10/24 08:07:41;;;;;;;9.00;3.83;;;5.90;97.30;;;;;;5017071;28;20184;-84
2021/10/24 08:10:07;;;;;;;5.90;3.70;;;6.00;97.30;;;;;;5018603;28;20477;-84
2021/10/24 08:12:34;;;;;;;5.60;4.10;;;6.10;97.30;;;;;;5035741;28;20937;-83
2021/10/24 08:15:00;;;;;;;10.10;4.00;;;6.20;97.30;;;;;;5017112;28;20412;-83
2021/10/24 08:17:26;;;;;;;8.87;3.97;;;6.40;97.30;;;;;;5035030;28;20817;-83
2021/10/24 08:19:51;;;;;;;10.67;3.70;;;6.50;97.30;;;;;;5017548;28;20172;-83
2021/10/24 08:22:19;;;;;;;6.00;3.50;;;6.60;97.30;;;;;;5010936;23;20512;-79
2021/10/24 08:24:45;;;;;;;8.17;4.20;;;6.70;97.30;;;;;;5010623;28;20193;-79
2021/10/24 08:27:11;;;;;;;4.53;3.20;;;6.80;97.30;;;;;;5011671;28;20408;-81
2021/10/24 08:29:37;;;;;;;6.03;3.33;;;6.90;97.30;;;;;;4994267;28;20423;-79
2021/10/24 08:32:06;;;;;;;8.20;3.60;;;7.00;97.30;;;;;;4994216;28;20428;-79
2021/10/24 08:34:32;;;;;;;8.80;3.53;;;7.10;97.30;;;;;;4993773;28;20201;-80
2021/10/24 08:36:58;;;;;;;9.13;2.90;;;7.20;97.30;;;;;;4994006;28;20475;-82
2021/10/24 08:39:23;;;;;;;6.17;3.70;;;7.20;97.30;;;;;;4994161;28;20424;-79
2021/10/24 08:41:51;;;;;;;6.87;3.07;;;7.30;97.30;;;;;;5011888;28;20170;-81
2021/10/24 08:44:17;;;;;;;3.93;3.27;;;7.40;97.30;;;;;;4994098;28;20197;-82
2021/10/24 08:46:43;;;;;;;10.33;3.27;;;7.50;97.30;;;;;;4993970;28;20432;-80
2021/10/24 08:49:09;;;;;;;5.97;3.07;;;7.60;97.30;;;;;;4995266;28;20458;-79
2021/10/24 08:51:35;;;;;;;3.30;2.80;;;7.70;97.30;;;;;;4995762;28;20507;-79
2021/10/24 08:54:02;;;;;;;6.73;3.33;;;7.70;97.30;;;;;;4995511;28;20432;-78
2021/10/24 08:56:30;;;;;;;10.83;2.70;;;7.80;97.30;;;;;;5012830;28;20456;-79
2021/10/24 08:58:56;;;;;;;7.93;2.83;;;7.90;97.30;;;;;;4995508;28;20413;-80
2021/10/24 09:01:22;;;;;;;9.43;4.03;;;8.00;97.30;;;;;;5013166;28;20845;-78
2021/10/24 09:04:20;;;;;;;7.30;3.40;;;8.20;97.30;;;;;;4995374;28;20460;-80
2021/10/24 09:06:59;;;;;;;10.20;3.37;;;8.30;97.30;;;;;;4970057;28;20186;-78
2021/10/24 09:09:31;;;;;;;9.33;4.53;;;8.30;97.30;;;;;;5011903;28;20404;-79
2021/10/24 09:12:01;;;;;;;7.00;3.47;;;8.40;97.30;;;;;;5011815;28;20403;-80
2021/10/24 09:14:40;;;;;;;7.23;3.37;;;8.50;97.30;;;;;;4995280;28;20464;-78
2021/10/24 09:17:08;;;;;;;3.77;2.80;;;8.50;97.30;;;;;;4997662;28;20455;-78
2021/10/24 09:19:36;;;;;;;6.37;3.20;;;8.60;97.30;;;;;;5015303;28;20440;-80
2021/10/24 09:22:28;;;;;;;5.17;3.00;;;8.70;97.30;;;;;;4997249;28;21012;-81
2021/10/24 09:25:00;;;;;;;6.33;3.10;;;8.90;97.30;;;;;;4997343;28;20428;-79
2021/10/24 09:27:25;;;;;;;9.00;3.17;;;9.00;97.30;;;;;;4997334;28;20444;-80
2021/10/24 09:29:51;;;;;;;7.77;3.90;;;9.10;97.30;;;;;;4997399;28;20843;-79
2021/10/24 09:32:16;;;;;;;6.50;3.00;;;9.20;97.30;;;;;;4997413;28;20181;-79
2021/10/24 09:34:42;;;;;;;11.00;2.90;;;9.30;97.30;;;;;;4997157;28;20212;-79
2021/10/24 09:37:08;;;;;;;8.43;3.50;;;9.40;97.30;;;;;;4997397;28;20208;-80
2021/10/24 09:39:36;;;;;;;7.20;3.67;;;9.50;97.30;;;;;;4997460;28;20647;-80
2021/10/24 09:42:19;;;;;;;8.00;3.77;;;9.60;97.30;;;;;;4997349;28;20219;-79
2021/10/24 09:45:05;;;;;;;4.80;2.73;;;9.80;97.30;;;;;;4997149;28;20440;-79
2021/10/24 09:47:34;;;;;;;10.13;3.40;;;10.00;97.30;;;;;;5013289;28;20415;-81
2021/10/24 09:50:00;;;;;;;4.90;2.97;;;10.10;97.30;;;;;;4996290;28;20422;-79
2021/10/24 09:52:31;;;;;;;4.90;3.00;;;10.20;97.30;;;;;;5013368;28;20412;-79
2021/10/24 09:54:57;;;;;;;6.90;3.07;;;10.30;97.30;;;;;;4997017;28;20447;-79
2021/10/24 09:57:23;;;;;;;8.20;2.53;;;10.40;97.30;;;;;;5014820;28;20458;-80
2021/10/24 09:59:52;;;;;;;5.47;3.20;;;10.50;97.30;;;;;;5013574;28;20417;-79
2021/10/24 10:02:19;;;;;;;4.20;2.37;;;10.60;97.30;;;;;;4997304;28;20527;-83
2021/10/24 10:04:45;;;;;;;13.83;2.90;;;10.60;97.30;;;;;;4997157;28;20502;-80
2021/10/24 10:07:12;;;;;;;8.00;2.70;;;10.70;97.30;;;;;;4997741;28;20431;-80
2021/10/24 10:09:39;;;;;;;7.23;2.83;;;10.80;97.30;;;;;;4994663;28;21029;-78
2021/10/24 10:12:06;;;;;;;7.10;3.30;;;10.80;97.30;;;;;;4977717;28;20417;-77
2021/10/24 10:14:35;;;;;;;8.53;3.10;;;10.90;97.00;;;;;;4977011;28;20437;-77
2021/10/24 10:17:05;;;;;;;8.73;3.37;;;11.10;97.30;;;;;;4976286;28;20457;-77
2021/10/24 10:19:35;;;;;;;7.10;2.67;;;11.20;97.00;;;;;;4976064;28;20483;-77
2021/10/24 10:22:27;;;;;;;6.40;2.50;;;11.20;95.60;;;;;;4975688;28;20554;-76
2021/10/24 10:25:06;;;;;;;9.73;3.27;;;11.30;96.20;;;;;;4975732;28;20465;-77
2021/10/24 10:27:35;;;;;;;5.00;2.47;;;11.40;95.70;;;;;;4975577;28;20409;-77
2021/10/24 10:30:12;;;;;;;6.50;2.50;;;11.50;95.20;;;;;;4977115;28;20814;-77
2021/10/24 10:32:40;;;;;;;4.63;2.53;;;11.50;95.50;;;;;;4982359;28;20658;-77
2021/10/24 10:35:18;;;;;;;6.30;2.33;;;11.60;94.90;;;;;;4997359;28;20934;-76
2021/10/24 10:37:55;;;;;;;3.93;2.60;;;11.80;95.70;;;;;;4997267;28;20408;-77
2021/10/24 10:40:38;;;;;;;10.10;2.30;;;11.90;94.90;;;;;;4996331;28;20404;-76
2021/10/24 10:43:09;;;;;;;12.77;2.80;;;12.00;94.00;;;;;;4993795;28;20958;-76
2021/10/24 10:45:36;;;;;;;5.10;2.27;;;12.10;93.70;;;;;;4993999;28;20436;-77
2021/10/24 10:48:06;;;;;;;8.70;2.33;;;12.20;93.20;;;;;;4995773;28;20493;-77
2021/10/24 10:50:38;;;;;;;9.90;2.70;;;12.30;92.10;;;;;;4990553;28;20492;-77
2021/10/24 10:53:07;;;;;;;7.80;2.60;;;12.50;91.60;;;;;;4993882;28;20786;-77
2021/10/24 10:56:01;;;;;;;5.07;2.83;;;12.60;91.10;;;;;;4988605;28;20436;-77
2021/10/24 10:58:36;;;;;;;3.63;2.00;;;12.70;90.60;;;;;;4998770;28;20420;-76
2021/10/24 11:01:04;;;;;;;8.33;3.63;;;12.80;90.70;;;;;;4989716;28;20754;-76
2021/10/24 11:03:47;;;;;;;10.17;2.60;;;13.00;90.30;;;;;;4982114;28;20504;-76
2021/10/24 11:06:28;;;;;;;5.13;1.80;;;13.10;89.40;;;;;;4978391;28;20445;-77
2021/10/24 11:08:57;;;;;;;14.90;3.43;;;13.20;88.30;;;;;;4991924;28;20946;-76
2021/10/24 11:14:32;;;;;;;5.90;2.23;;;13.60;90.80;;;;;;5011413;28;20474;-77
2021/10/24 11:16:59;;;;;;;6.27;2.57;;;13.80;90.30;;;;;;4991992;28;20472;-77
2021/10/24 11:19:36;;;;;;;7.33;2.60;;;14.00;90.60;;;;;;4976585;28;20468;-77
2021/10/24 11:22:07;;;;;;;4.90;1.90;;;14.20;90.70;;;;;;4988285;28;20476;-77
2021/10/24 11:24:44;;;;;;;9.00;2.20;;;14.40;88.60;;;;;;4985978;28;20975;-77
2021/10/24 11:27:13;;;;;;;4.50;2.17;;;14.30;86.60;;;;;;4975420;28;20939;-77
2021/10/24 11:29:50;;;;;;;3.50;2.07;;;14.30;88.70;;;;;;4971242;28;20432;-76
2021/10/24 11:32:35;;;;;;;7.20;2.13;;;14.40;87.60;;;;;;4971781;28;21028;-77
2021/10/24 11:35:12;;;;;;;7.50;2.10;;;14.50;87.70;;;;;;4971226;28;20955;-77
2021/10/24 11:38:07;;;;;;;7.20;3.40;;;14.50;87.60;;;;;;4970263;28;20465;-75
2021/10/24 11:40:35;;;;;;;12.00;2.50;;;14.60;87.60;;;;;;4955411;28;21004;-76
2021/10/24 11:43:08;;;;;;;4.07;1.77;;;14.60;87.20;;;;;;4986799;28;20426;-77
2021/10/24 11:45:39;;;;;;;3.63;2.37;;;14.70;86.20;;;;;;4991580;28;20452;-77
2021/10/24 11:48:17;;;;;;;7.70;2.17;;;14.70;87.20;;;;;;4991955;28;20397;-78
2021/10/24 11:50:55;;;;;;;11.50;3.20;;;14.90;87.50;;;;;;4980665;28;20410;-78
2021/10/24 11:53:35;;;;;;;5.40;2.50;;;15.00;87.10;;;;;;4985752;28;20416;-77
2021/10/24 11:56:02;;;;;;;6.50;2.67;;;15.30;86.00;;;;;;4991045;28;20473;-78
2021/10/24 12:01:27;;;;;;;3.23;1.70;;;15.40;83.60;;;;;;4991496;28;20464;-78
2021/10/24 12:04:05;;;;;;;5.70;2.43;;;15.60;83.50;;;;;;4982798;28;20409;-80
2021/10/24 12:06:51;;;;;;;5.93;2.30;;;15.70;82.10;;;;;;4975890;28;20429;-81
2021/10/24 12:09:39;;;;;;;4.90;2.43;;;15.80;81.60;;;;;;4975132;28;20426;-81
2021/10/24 12:12:10;;;;;;;6.47;2.20;;;15.90;81.30;;;;;;4977357;28;20429;-81
2021/10/24 12:14:56;;;;;;;5.87;2.37;;;15.90;81.10;;;;;;5000761;28;20443;-81
2021/10/24 12:17:28;;;;;;;7.60;2.00;;;16.10;82.00;;;;;;4993809;28;20555;-81
2021/10/24 12:20:06;;;;;;;5.63;2.30;;;16.30;82.00;;;;;;4994039;28;20421;-81
2021/10/24 12:22:40;;;;;;;4.33;2.33;;;16.50;81.60;;;;;;4995139;28;20464;-81
2021/10/24 12:25:07;;;;;;;6.27;2.30;;;16.70;81.10;;;;;;4995226;28;20469;-81
2021/10/24 12:27:35;;;;;;;4.60;2.30;;;16.70;81.40;;;;;;4983972;28;20428;-80
2021/10/24 12:30:12;;;;;;;7.67;3.37;;;16.80;80.50;;;;;;4988769;28;20435;-80
2021/10/24 12:33:13;;;;;;;4.40;2.00;;;16.80;80.40;;;;;;4988569;28;20436;-79
2021/10/24 12:35:47;;;;;;;4.90;2.47;;;16.70;80.40;;;;;;4975645;28;20472;-78
2021/10/24 12:38:14;;;;;;;7.37;2.30;;;16.50;80.70;;;;;;4976965;28;20417;-80
2021/10/24 12:40:55;;;;;;;10.97;3.00;;;16.60;82.30;;;;;;4991766;28;20433;-81
2021/10/24 12:43:22;;;;;;;9.27;3.23;;;17.00;82.00;;;;;;4992499;28;20433;-80
2021/10/24 12:45:57;;;;;;;9.03;2.57;;;17.20;81.10;;;;;;4995347;28;20436;-80
2021/10/24 12:48:37;;;;;;;5.17;2.90;;;17.40;80.60;;;;;;4996130;28;20794;-80
2021/10/24 12:51:23;;;;;;;5.40;1.87;;;17.50;80.70;;;;;;4997890;28;20470;-81
2021/10/24 12:53:50;;;;;;;7.80;2.60;;;17.30;79.80;;;;;;4999073;28;20436;-80
2021/10/24 12:56:16;;;;;;;6.50;2.10;;;17.30;79.90;;;;;;4999206;28;20480;-80
2021/10/24 12:58:42;;;;;;;4.30;2.13;;;17.40;80.10;;;;;;4999665;28;20425;-79
2021/10/24 13:01:20;;;;;;;4.87;2.03;;;17.60;79.50;;;;;;4998327;28;20423;-78